Time;durP1;ratioP1;P1;durP2;ratioP2;P2;SDS_P1;SDS_P2;PMS_P1;PMS_P2;Temp;Humidity;BMP_temperature;BMP_pressure;BME280_temperature;BME280_humidity;BME280_pressure;Samples;Min_cycle;Max_cycle;Signal;HPM_P1;HPM_P2
2023/06/17 00:00:23;;;;;;;6.27;5.13;;;;;;;17.17;73.03;98042.22;5055161;28;20300;-76
2023/06/17 00:02:50;;;;;;;6.83;5.00;;;;;;;17.13;73.56;98043.78;5054763;28;20211;-76
2023/06/17 00:05:17;;;;;;;6.90;5.30;;;;;;;17.13;73.57;98044.63;5055010;28;20201;-76
2023/06/17 00:07:44;;;;;;;6.23;5.40;;;;;;;17.11;73.79;98045.94;5054929;28;20229;-76
2023/06/17 00:10:11;;;;;;;5.83;5.23;;;;;;;17.17;72.73;98042.22;5063985;28;20212;-76
2023/06/17 00:12:38;;;;;;;6.10;5.50;;;;;;;17.17;72.95;98043.03;5059835;28;20224;-76
2023/06/17 00:15:08;;;;;;;7.37;5.33;;;;;;;17.22;72.29;98048.44;5054837;28;20211;-76
2023/06/17 00:17:35;;;;;;;6.20;5.37;;;;;;;17.21;71.52;98029.88;5054717;28;20225;-76
2023/06/17 00:20:07;;;;;;;7.47;5.47;;;;;;;17.18;72.40;98033.91;5054710;28;20201;-76
2023/06/17 00:22:35;;;;;;;7.57;5.50;;;;;;;17.08;73.73;98033.03;5054256;28;20664;-76
2023/06/17 00:25:03;;;;;;;6.00;5.40;;;;;;;17.05;72.94;98036.25;5054304;28;20209;-76
2023/06/17 00:27:29;;;;;;;6.00;5.13;;;;;;;17.08;73.40;98030.34;5054486;28;20221;-76
2023/06/17 00:29:59;;;;;;;9.60;5.63;;;;;;;17.04;72.31;98030.06;5054375;28;20206;-76
2023/06/17 00:32:26;;;;;;;10.00;5.67;;;;;;;17.04;71.69;98035.44;5064760;28;20204;-76
2023/06/17 00:34:52;;;;;;;6.10;5.50;;;;;;;16.94;73.47;98034.56;5074156;28;20204;-76
2023/06/17 00:37:19;;;;;;;8.87;5.57;;;;;;;16.98;72.46;98036.47;5074081;28;20719;-76
2023/06/17 00:39:45;;;;;;;8.33;5.70;;;;;;;16.98;72.54;98036.47;5065034;28;20200;-76
2023/06/17 00:42:12;;;;;;;9.27;6.37;;;;;;;17.01;73.48;98030.56;5058124;28;20661;-76
2023/06/17 00:44:40;;;;;;;7.13;6.07;;;;;;;17.00;73.18;98023.59;5054270;28;20212;-76
2023/06/17 00:47:07;;;;;;;8.53;5.80;;;;;;;16.98;73.23;98025.75;5057508;28;20220;-76
2023/06/17 00:49:37;;;;;;;9.13;6.10;;;;;;;16.96;73.54;98022.50;5063859;28;20216;-76
2023/06/17 00:52:08;;;;;;;8.27;5.87;;;;;;;16.89;74.24;98013.88;5054414;28;20570;-76
2023/06/17 00:54:40;;;;;;;8.77;5.83;;;;;;;16.92;74.48;98012.53;5054144;28;20209;-76
2023/06/17 00:57:16;;;;;;;7.17;5.97;;;;;;;16.84;74.74;98008.47;5053730;28;20591;-76
2023/06/17 00:59:44;;;;;;;6.77;6.17;;;;;;;16.87;74.51;98018.69;5054075;28;20197;-76
2023/06/17 01:02:13;;;;;;;6.97;6.27;;;;;;;16.86;74.73;98018.94;5071070;28;20648;-76
2023/06/17 01:04:42;;;;;;;9.90;6.63;;;;;;;16.82;74.40;98020.53;5064712;28;20205;-76
2023/06/17 01:07:29;;;;;;;6.50;5.90;;;;;;;16.77;74.44;98015.13;5053608;28;20603;-76
2023/06/17 01:10:07;;;;;;;8.23;6.17;;;;;;;16.71;74.42;98024.22;5052958;28;20663;-76
2023/06/17 01:12:34;;;;;;;9.17;6.03;;;;;;;16.71;74.58;98024.22;5053817;28;20193;-76
2023/06/17 01:15:01;;;;;;;6.90;6.20;;;;;;;16.70;75.26;98027.97;5053831;28;20209;-76
2023/06/17 01:17:28;;;;;;;6.87;6.17;;;;;;;16.61;75.40;98016.09;5072974;28;20305;-76
2023/06/17 01:19:56;;;;;;;7.53;6.10;;;;;;;16.53;76.00;98021.94;5073429;28;20212;-76
2023/06/17 01:22:25;;;;;;;7.67;6.67;;;;;;;16.57;76.01;98023.03;5073705;28;20243;-76
2023/06/17 01:24:52;;;;;;;7.03;6.23;;;;;;;16.56;75.48;98024.91;5062786;28;20216;-76
2023/06/17 01:27:18;;;;;;;7.93;6.20;;;;;;;16.57;76.24;98029.22;5053132;28;20687;-76
2023/06/17 01:29:48;;;;;;;7.73;6.03;;;;;;;16.47;76.63;98021.09;5053614;28;20212;-76
2023/06/17 01:32:15;;;;;;;8.23;6.20;;;;;;;16.39;76.69;98020.72;5053582;28;20244;-76
2023/06/17 01:34:53;;;;;;;8.40;6.30;;;;;;;16.40;77.06;98022.38;5052982;28;20201;-76
2023/06/17 01:37:26;;;;;;;6.90;6.20;;;;;;;16.40;77.19;98020.50;5053695;28;20221;-76
2023/06/17 01:39:57;;;;;;;7.60;6.70;;;;;;;16.46;75.83;98021.38;5053265;28;20198;-76
2023/06/17 01:42:31;;;;;;;6.60;5.87;;;;;;;16.44;75.89;98015.44;5053149;28;20696;-76
2023/06/17 01:45:00;;;;;;;7.50;6.00;;;;;;;16.41;76.26;98022.13;5053513;28;20239;-76
2023/06/17 01:47:26;;;;;;;7.03;5.90;;;;;;;16.32;77.10;98015.56;5053293;28;20278;-76
2023/06/17 01:49:55;;;;;;;7.47;6.17;;;;;;;16.31;77.03;98024.69;5053385;28;20211;-76
2023/06/17 01:52:22;;;;;;;6.53;5.93;;;;;;;16.24;77.98;98024.09;5053244;28;20201;-76
2023/06/17 01:54:48;;;;;;;7.27;6.10;;;;;;;16.20;78.08;98025.66;5053326;28;20219;-76
2023/06/17 01:57:14;;;;;;;8.03;6.40;;;;;;;16.19;79.06;98021.38;5053258;28;20232;-76
2023/06/17 01:59:41;;;;;;;7.30;6.60;;;;;;;16.21;79.28;98021.13;5053268;28;20220;-76
2023/06/17 02:02:07;;;;;;;6.77;6.13;;;;;;;16.12;79.50;98023.47;5053307;28;20236;-76
2023/06/17 02:04:34;;;;;;;7.53;6.20;;;;;;;16.15;79.33;98022.13;5056545;28;20671;-76
2023/06/17 02:07:00;;;;;;;6.77;6.07;;;;;;;16.07;79.76;98022.59;5073143;28;20232;-76
2023/06/17 02:09:26;;;;;;;7.73;6.03;;;;;;;16.05;79.53;98022.06;5072995;28;20579;-76
2023/06/17 02:11:53;;;;;;;8.37;5.70;;;;;;;16.00;80.62;98017.44;5073205;28;20558;-76
2023/06/17 02:14:19;;;;;;;6.70;6.03;;;;;;;16.13;80.58;98013.53;5072891;28;20690;-76
2023/06/17 02:16:49;;;;;;;7.43;5.97;;;;;;;16.02;79.77;98020.66;5072315;28;20224;-76
2023/06/17 02:19:15;;;;;;;7.23;6.50;;;;;;;16.09;78.98;98017.78;5073186;28;20205;-76
2023/06/17 02:21:43;;;;;;;9.23;6.43;;;;;;;15.94;79.48;98013.09;5075274;28;20208;-76
2023/06/17 02:24:10;;;;;;;8.00;6.23;;;;;;;15.92;79.94;98014.41;5076732;28;20223;-76
2023/06/17 02:26:37;;;;;;;7.53;6.80;;;;;;;15.91;81.02;98010.09;5076801;28;20266;-76
2023/06/17 02:29:04;;;;;;;7.33;6.60;;;;;;;15.96;80.23;98004.81;5072724;28;20204;-76
2023/06/17 02:31:32;;;;;;;6.77;5.93;;;;;;;15.94;80.96;98007.75;5056907;28;20209;-76
2023/06/17 02:33:59;;;;;;;6.80;6.10;;;;;;;15.96;80.52;98004.81;5056457;28;20734;-76
2023/06/17 02:36:25;;;;;;;7.93;6.57;;;;;;;15.89;80.85;97999.66;5056659;28;20230;-76
2023/06/17 02:38:54;;;;;;;10.03;6.40;;;;;;;15.83;81.35;97997.97;5060086;28;20208;-76
2023/06/17 02:41:20;;;;;;;8.23;6.53;;;;;;;15.81;81.36;97999.28;5076630;28;20205;-76
2023/06/17 02:43:47;;;;;;;10.20;6.13;;;;;;;15.84;81.01;97988.84;5076623;28;20706;-76
2023/06/17 02:46:13;;;;;;;6.90;6.20;;;;;;;15.77;82.56;97993.63;5076195;28;20729;-76
2023/06/17 02:48:40;;;;;;;8.77;6.13;;;;;;;15.69;83.48;97991.38;5075895;28;20307;-76
2023/06/17 02:51:07;;;;;;;7.53;6.07;;;;;;;15.62;82.94;97990.81;5076468;28;20212;-76
2023/06/17 02:53:34;;;;;;;8.67;6.57;;;;;;;15.65;82.73;97992.16;5076482;28;20200;-76
2023/06/17 02:56:01;;;;;;;6.40;5.70;;;;;;;15.62;82.84;97987.28;5059706;28;20221;-76
2023/06/17 02:58:27;;;;;;;7.07;6.10;;;;;;;15.67;81.60;97996.22;5055981;28;20205;-76
2023/06/17 03:00:54;;;;;;;8.73;6.23;;;;;;;15.75;81.01;97997.63;5055795;28;20205;-76
2023/06/17 03:03:33;;;;;;;8.67;6.23;;;;;;;15.71;80.50;97991.97;5055677;28;20597;-76
2023/06/17 03:06:04;;;;;;;6.97;6.23;;;;;;;15.72;80.23;97995.44;5056100;28;20311;-76
2023/06/17 03:08:33;;;;;;;8.37;6.00;;;;;;;15.70;80.95;98001.03;5055836;28;20217;-76
2023/06/17 03:11:00;;;;;;;6.47;5.87;;;;;;;15.71;81.14;97997.31;5055621;28;20205;-76
2023/06/17 03:13:28;;;;;;;6.17;5.57;;;;;;;15.69;81.35;97995.97;5055847;28;20220;-76
2023/06/17 03:15:55;;;;;;;7.10;6.40;;;;;;;15.65;82.25;97995.63;5055710;28;20222;-76
2023/06/17 03:18:22;;;;;;;7.40;6.43;;;;;;;15.67;82.02;97996.22;5055118;28;20652;-76
2023/06/17 03:20:50;;;;;;;7.50;5.93;;;;;;;15.65;82.07;98002.88;5056042;28;20215;-76
2023/06/17 03:23:17;;;;;;;7.10;5.90;;;;;;;15.67;81.75;98006.94;5055283;28;20213;-76
2023/06/17 03:25:44;;;;;;;7.30;6.10;;;;;;;15.62;82.00;98003.38;5055562;28;20312;-76
2023/06/17 03:28:10;;;;;;;8.73;6.43;;;;;;;15.60;82.13;98005.50;5055398;28;20228;-76
2023/06/17 03:30:39;;;;;;;8.27;6.53;;;;;;;15.55;82.42;97995.53;5055735;28;20213;-76
2023/06/17 03:33:05;;;;;;;10.23;6.50;;;;;;;15.51;82.71;98005.13;5054624;28;20209;-76
2023/06/17 03:35:33;;;;;;;7.73;6.90;;;;;;;15.55;83.18;98003.56;5055457;28;20213;-76
2023/06/17 03:38:00;;;;;;;6.67;5.77;;;;;;;15.59;82.72;98010.06;5055349;28;20206;-76
2023/06/17 03:40:26;;;;;;;6.97;6.27;;;;;;;15.54;84.03;98004.63;5054605;28;20205;-76
2023/06/17 03:42:54;;;;;;;7.20;6.47;;;;;;;15.54;82.54;98001.97;5055342;28;20212;-76
2023/06/17 03:45:20;;;;;;;6.63;5.93;;;;;;;15.53;82.63;98002.22;5055007;28;20542;-76
2023/06/17 03:47:47;;;;;;;8.30;6.10;;;;;;;15.44;82.98;98017.09;5055199;28;20271;-76
2023/06/17 03:50:13;;;;;;;11.23;6.80;;;;;;;15.45;83.26;98018.72;5055287;28;20204;-76
2023/06/17 03:52:40;;;;;;;6.77;6.10;;;;;;;15.48;83.30;98019.06;5055539;28;20683;-76
2023/06/17 03:55:07;;;;;;;6.93;6.23;;;;;;;15.49;82.73;98015.31;5055028;28;20688;-76
2023/06/17 03:57:33;;;;;;;6.93;6.33;;;;;;;15.46;82.87;98014.97;5055161;28;20221;-76
2023/06/17 03:59:59;;;;;;;7.50;5.90;;;;;;;15.51;80.95;98015.06;5054459;28;20556;-76
2023/06/17 04:02:26;;;;;;;7.57;5.80;;;;;;;15.58;81.26;98018.34;5068866;28;20287;-76
2023/06/17 04:04:52;;;;;;;6.13;5.53;;;;;;;15.54;81.65;98011.84;5075045;28;20303;-76
2023/06/17 04:07:22;;;;;;;6.73;5.67;;;;;;;15.56;81.26;98012.44;5070939;28;20216;-76
2023/06/17 04:09:49;;;;;;;7.17;5.90;;;;;;;15.58;82.00;98011.13;5065633;28;20264;-76
2023/06/17 04:12:15;;;;;;;8.60;6.00;;;;;;;15.61;81.95;98007.13;5054021;28;20208;-76
2023/06/17 04:14:42;;;;;;;7.00;5.67;;;;;;;15.63;81.37;98013.03;5054938;28;20292;-76
2023/06/17 04:17:08;;;;;;;6.17;5.57;;;;;;;15.61;81.61;98013.28;5066315;28;20695;-76
2023/06/17 04:19:37;;;;;;;6.43;5.83;;;;;;;15.60;81.86;98027.75;5066767;28;20216;-76
2023/06/17 04:22:05;;;;;;;7.07;5.70;;;;;;;15.55;81.44;98019.66;5074889;28;20204;-76
2023/06/17 04:24:32;;;;;;;7.10;5.57;;;;;;;15.63;80.56;98015.72;5059764;28;20588;-76
2023/06/17 04:26:59;;;;;;;8.40;6.13;;;;;;;15.62;80.40;98017.59;5054312;28;20232;-76
2023/06/17 04:29:29;;;;;;;6.57;5.77;;;;;;;15.61;80.66;98028.56;5062881;28;20687;-76
2023/06/17 04:31:56;;;;;;;6.57;5.87;;;;;;;15.59;80.53;98023.44;5056085;28;20274;-76
2023/06/17 04:34:22;;;;;;;6.00;5.50;;;;;;;15.63;80.17;98015.72;5067107;28;20204;-76
2023/06/17 04:36:56;;;;;;;6.03;5.43;;;;;;;15.67;79.58;98017.66;5073392;28;20227;-76
2023/06/17 04:39:23;;;;;;;5.97;5.37;;;;;;;15.63;79.51;98013.03;5073924;28;20188;-76
2023/06/17 04:41:51;;;;;;;6.67;5.80;;;;;;;15.61;80.08;98013.28;5074360;28;20209;-76
2023/06/17 04:44:17;;;;;;;7.47;5.90;;;;;;;15.57;80.74;98019.41;5073345;28;20240;-76
2023/06/17 04:46:45;;;;;;;7.33;6.50;;;;;;;15.58;80.64;98016.47;5072913;28;20220;-76
2023/06/17 04:49:12;;;;;;;8.40;6.40;;;;;;;15.58;81.82;98019.16;5052336;28;20316;-76
2023/06/17 04:51:40;;;;;;;6.43;5.90;;;;;;;15.55;82.15;98011.59;5050218;28;20205;-76
2023/06/17 04:54:07;;;;;;;9.60;6.00;;;;;;;15.66;81.77;98010.69;5052463;28;20205;-76
2023/06/17 04:56:34;;;;;;;7.60;5.83;;;;;;;15.62;81.94;98014.91;5051359;28;20287;-76
2023/06/17 04:59:00;;;;;;;8.40;6.27;;;;;;;15.70;81.46;98016.34;5050955;28;20205;-76
2023/06/17 05:01:26;;;;;;;8.03;6.27;;;;;;;15.73;81.03;98011.28;5051422;28;20572;-76
2023/06/17 05:03:53;;;;;;;6.90;5.87;;;;;;;15.69;81.69;98015.50;5052488;28;20212;-76
2023/06/17 05:06:19;;;;;;;7.67;6.40;;;;;;;15.82;81.30;98014.28;5052375;28;20222;-76
2023/06/17 05:08:45;;;;;;;6.73;6.10;;;;;;;15.90;80.45;98016.53;5052359;28;20225;-76
2023/06/17 05:11:12;;;;;;;10.53;6.33;;;;;;;15.95;79.61;98016.56;5053048;28;20209;-76
2023/06/17 05:13:39;;;;;;;6.47;5.87;;;;;;;15.91;79.81;98008.22;5053767;28;20205;-76
2023/06/17 05:16:05;;;;;;;8.10;6.70;;;;;;;16.34;77.21;98018.81;5053997;28;20223;-76
2023/06/17 05:18:32;;;;;;;7.77;6.00;;;;;;;16.90;74.77;98022.72;5053734;28;20211;-76
2023/06/17 05:20:58;;;;;;;8.63;6.23;;;;;;;17.60;70.21;98021.19;5053661;28;20576;-76
2023/06/17 05:23:25;;;;;;;7.27;6.00;;;;;;;17.67;69.04;98026.31;5053534;28;20224;-76
2023/06/17 05:25:51;;;;;;;6.33;5.73;;;;;;;17.99;67.89;98016.19;5053864;28;20240;-76
2023/06/17 05:28:18;;;;;;;6.93;5.90;;;;;;;18.07;67.29;98019.16;5053374;28;20297;-76
2023/06/17 05:30:44;;;;;;;9.47;6.50;;;;;;;18.14;67.24;98021.59;5053276;28;20245;-76
2023/06/17 05:33:10;;;;;;;6.53;6.03;;;;;;;17.98;67.78;98023.47;5053229;28;20680;-76
2023/06/17 05:35:37;;;;;;;7.37;6.57;;;;;;;17.88;68.86;98018.06;5053261;28;20229;-76
2023/06/17 05:38:03;;;;;;;6.77;6.17;;;;;;;17.86;69.64;98012.13;5053106;28;20208;-76
2023/06/17 05:40:29;;;;;;;7.07;6.37;;;;;;;17.58;70.75;98020.66;5053276;28;20208;-76
2023/06/17 05:42:56;;;;;;;9.13;6.33;;;;;;;17.57;69.84;98018.22;5053309;28;20209;-76
2023/06/17 05:45:22;;;;;;;8.47;6.27;;;;;;;17.37;70.79;98028.88;5053188;28;20202;-76
2023/06/17 05:47:48;;;;;;;6.93;6.23;;;;;;;17.52;70.24;98021.72;5053153;28;20696;-76
2023/06/17 05:50:15;;;;;;;7.40;6.63;;;;;;;17.67;69.91;98024.47;5052895;28;20215;-76
2023/06/17 05:52:41;;;;;;;6.80;6.17;;;;;;;17.54;69.91;98030.31;5053265;28;20220;-76
2023/06/17 05:55:09;;;;;;;6.87;6.10;;;;;;;17.60;69.73;98026.56;5053194;28;20209;-76
2023/06/17 05:57:36;;;;;;;8.60;5.97;;;;;;;17.71;69.91;98025.53;5057063;28;20229;-76
2023/06/17 06:00:03;;;;;;;7.93;5.97;;;;;;;17.77;68.67;98034.41;5057033;28;20235;-76
2023/06/17 06:02:30;;;;;;;6.33;5.83;;;;;;;17.84;68.65;98034.97;5057260;28;20204;-76
2023/06/17 06:04:56;;;;;;;8.23;6.30;;;;;;;17.90;67.33;98026.66;5057411;28;20216;-76
2023/06/17 06:07:22;;;;;;;6.87;6.00;;;;;;;18.02;67.36;98032.59;5057115;28;20225;-76
2023/06/17 06:09:49;;;;;;;6.67;6.07;;;;;;;18.18;67.70;98028.06;5057175;28;20232;-76
2023/06/17 06:12:15;;;;;;;6.93;5.77;;;;;;;18.31;66.48;98025.63;5057455;28;20216;-76
2023/06/17 06:14:41;;;;;;;6.97;6.27;;;;;;;18.38;66.96;98030.78;5057196;28;20292;-76
2023/06/17 06:17:08;;;;;;;9.70;6.20;;;;;;;18.44;67.04;98033.22;5057313;28;20247;-76
2023/06/17 06:19:34;;;;;;;9.03;6.30;;;;;;;18.33;66.13;98036.16;5057021;28;20212;-76
2023/06/17 06:22:00;;;;;;;7.10;6.40;;;;;;;18.44;65.48;98033.22;5057044;28;20224;-77
2023/06/17 06:24:27;;;;;;;9.90;6.80;;;;;;;18.30;65.58;98032.09;5056444;28;20217;-77
2023/06/17 06:26:53;;;;;;;8.80;6.53;;;;;;;18.59;66.28;98033.19;5056528;28;20743;-77
2023/06/17 06:29:20;;;;;;;6.43;5.93;;;;;;;18.77;65.22;98039.94;5056553;28;20692;-77
2023/06/17 06:31:46;;;;;;;7.37;6.67;;;;;;;18.70;65.80;98028.63;5057071;28;20209;-77
2023/06/17 06:34:12;;;;;;;8.33;5.90;;;;;;;19.19;64.65;98032.28;5056708;28;20205;-77
2023/06/17 06:36:39;;;;;;;8.10;6.47;;;;;;;18.85;64.69;98037.47;5056159;28;20708;-77
2023/06/17 06:39:05;;;;;;;8.43;6.30;;;;;;;18.91;64.46;98046.38;5056316;28;20695;-77
2023/06/17 06:41:31;;;;;;;9.40;6.47;;;;;;;18.68;64.42;98039.66;5056475;28;20219;-77
2023/06/17 06:43:58;;;;;;;8.17;6.00;;;;;;;18.89;64.65;98043.13;5056572;28;20205;-77
2023/06/17 06:46:24;;;;;;;6.90;6.20;;;;;;;19.30;62.82;98042.78;5057396;28;20225;-77
2023/06/17 06:48:50;;;;;;;7.33;6.63;;;;;;;19.39;63.48;98043.84;5056471;28;20252;-77
2023/06/17 06:51:17;;;;;;;6.77;6.10;;;;;;;19.25;63.11;98045.50;5056458;28;20217;-77
2023/06/17 06:53:43;;;;;;;9.40;6.40;;;;;;;19.50;63.72;98044.63;5056389;28;20285;-77
2023/06/17 06:56:09;;;;;;;6.53;5.93;;;;;;;19.72;62.60;98041.53;5056357;28;20233;-77
2023/06/17 06:58:36;;;;;;;6.97;6.23;;;;;;;19.67;61.63;98039.66;5056162;28;20198;-77
2023/06/17 07:01:02;;;;;;;10.87;6.43;;;;;;;19.53;61.47;98039.47;5056057;28;20213;-77
2023/06/17 07:03:28;;;;;;;7.47;6.10;;;;;;;19.62;62.00;98044.28;5056176;28;20206;-77
2023/06/17 07:05:55;;;;;;;6.93;6.20;;;;;;;19.80;62.28;98046.38;5056137;28;20221;-77
2023/06/17 07:08:21;;;;;;;7.93;6.10;;;;;;;19.85;61.45;98049.81;5054851;28;20228;-77
2023/06/17 07:10:47;;;;;;;6.93;6.20;;;;;;;19.93;61.31;98045.75;5056130;28;20206;-77
2023/06/17 07:13:14;;;;;;;6.80;6.20;;;;;;;20.18;60.09;98037.53;5056001;28;20205;-77
2023/06/17 07:15:41;;;;;;;7.03;6.33;;;;;;;20.20;60.27;98046.13;5055797;28;20708;-77
2023/06/17 07:18:07;;;;;;;7.17;6.47;;;;;;;20.40;59.50;98048.69;5056056;28;20216;-77
2023/06/17 07:20:33;;;;;;;6.27;5.67;;;;;;;20.52;59.28;98055.34;5055530;28;20209;-77
2023/06/17 07:23:00;;;;;;;9.33;6.23;;;;;;;20.74;59.08;98054.91;5055321;28;20220;-77
2023/06/17 07:25:26;;;;;;;7.03;5.60;;;;;;;20.71;58.52;98055.47;5055686;28;20216;-77
2023/06/17 07:27:56;;;;;;;8.33;5.50;;;;;;;20.71;57.84;98066.28;5055620;28;20622;-77
2023/06/17 07:30:22;;;;;;;10.10;5.80;;;;;;;20.77;58.71;98055.16;5055316;28;20210;-77
2023/06/17 07:32:49;;;;;;;7.20;5.70;;;;;;;20.95;57.56;98049.06;5055601;28;20223;-77
2023/06/17 07:35:15;;;;;;;7.80;6.20;;;;;;;20.90;56.18;98059.09;5055401;28;20244;-77
2023/06/17 07:37:41;;;;;;;6.97;6.20;;;;;;;21.07;55.66;98054.88;5055068;28;20220;-78
2023/06/17 07:40:10;;;;;;;7.57;6.10;;;;;;;21.35;56.16;98051.31;5055354;28;20208;-77
2023/06/17 07:42:37;;;;;;;7.30;6.60;;;;;;;21.75;52.63;98050.09;5055280;28;20205;-77
2023/06/17 07:45:07;;;;;;;6.80;6.20;;;;;;;21.53;53.51;98042.47;5055189;28;20208;-77
2023/06/17 07:47:33;;;;;;;8.10;5.70;;;;;;;21.59;52.01;98046.72;5055140;28;20229;-77
2023/06/17 07:50:00;;;;;;;8.20;5.70;;;;;;;21.62;54.18;98043.44;5054742;28;20711;-77
2023/06/17 07:52:26;;;;;;;7.10;6.50;;;;;;;21.31;52.97;98049.50;5055506;28;20220;-78
2023/06/17 07:54:53;;;;;;;10.20;6.50;;;;;;;21.46;54.24;98046.59;5054759;28;20212;-77
2023/06/17 07:57:19;;;;;;;6.43;5.83;;;;;;;21.89;53.72;98040.94;5054976;28;20307;-77
2023/06/17 07:59:45;;;;;;;6.80;5.78;;;;;;;21.88;53.67;98042.03;5054994;28;20204;-77
2023/06/17 08:02:12;;;;;;;9.03;5.57;;;;;;;21.74;55.09;98041.16;5054856;28;20209;-77
2023/06/17 08:04:38;;;;;;;6.47;5.57;;;;;;;21.86;54.83;98033.41;5055135;28;20205;-77
2023/06/17 08:07:05;;;;;;;8.75;6.15;;;;;;;22.35;52.58;98032.97;5054932;28;20232;-77
2023/06/17 08:09:31;;;;;;;8.52;5.72;;;;;;;22.31;51.48;98037.34;5054688;28;20221;-77
2023/06/17 08:11:58;;;;;;;8.38;6.13;;;;;;;22.01;52.60;98032.38;5054979;28;20215;-77
2023/06/17 08:14:24;;;;;;;7.07;5.82;;;;;;;22.44;50.95;98031.19;5054567;28;20209;-77
2023/06/17 08:16:50;;;;;;;6.55;5.80;;;;;;;22.38;52.55;98025.03;5054661;28;20229;-77
2023/06/17 08:19:17;;;;;;;6.47;5.80;;;;;;;22.79;51.25;98027.94;5054243;28;20212;-77
2023/06/17 08:21:44;;;;;;;7.43;5.20;;;;;;;22.89;50.15;98027.75;5054437;28;20220;-77
2023/06/17 08:24:40;;;;;;;6.35;5.75;;;;;;;23.26;48.35;98020.31;5054258;28;20278;-77
2023/06/17 08:27:09;;;;;;;8.27;5.68;;;;;;;23.01;48.16;98018.03;5057654;28;20229;-77
2023/06/17 08:29:36;;;;;;;6.45;4.80;;;;;;;23.05;47.32;98026.34;5054482;28;20225;-77
2023/06/17 08:32:02;;;;;;;4.97;4.55;;;;;;;23.26;46.90;98019.50;5055150;28;20211;-77
2023/06/17 08:34:30;;;;;;;6.55;4.90;;;;;;;23.59;44.23;98015.56;5054079;28;20278;-77
2023/06/17 08:36:57;;;;;;;5.03;4.63;;;;;;;23.67;45.40;98015.66;5054239;28;20260;-77
2023/06/17 08:39:24;;;;;;;8.98;4.65;;;;;;;23.84;41.74;98012.31;5054004;28;20205;-77
2023/06/17 08:41:50;;;;;;;6.53;4.50;;;;;;;24.09;39.67;98019.91;5054177;28;20291;-77
2023/06/17 08:44:19;;;;;;;6.38;4.88;;;;;;;23.83;40.76;98013.44;5053835;28;20567;-77
2023/06/17 08:46:47;;;;;;;7.40;4.70;;;;;;;23.80;41.05;98014.84;5052571;28;20312;-77
2023/06/17 08:49:14;;;;;;;5.18;4.78;;;;;;;24.04;41.89;98011.88;5053864;28;20225;-77
2023/06/17 08:51:41;;;;;;;5.30;4.80;;;;;;;23.91;42.28;98012.72;5053807;28;20564;-77
2023/06/17 08:54:08;;;;;;;6.38;5.28;;;;;;;23.72;43.07;98017.44;5053681;28;20568;-77
2023/06/17 08:56:35;;;;;;;6.72;4.60;;;;;;;24.18;43.23;98004.50;5053441;28;20593;-77
2023/06/17 08:59:01;;;;;;;7.00;4.93;;;;;;;24.62;40.86;98005.34;5053712;28;20212;-77
2023/06/17 09:01:28;;;;;;;6.10;4.68;;;;;;;24.79;40.15;98010.88;5053962;28;20233;-75
2023/06/17 09:03:55;;;;;;;5.25;4.75;;;;;;;24.82;40.51;98010.25;5053862;28;20253;-74
2023/06/17 09:06:24;;;;;;;10.35;4.65;;;;;;;24.78;38.01;98011.22;5053754;28;20226;-77
2023/06/17 09:08:55;;;;;;;5.60;4.60;;;;;;;24.80;38.82;98004.34;5053437;28;20688;-77
2023/06/17 09:11:23;;;;;;;5.35;4.30;;;;;;;24.68;37.13;98000.56;5053853;28;20189;-77
2023/06/17 09:13:54;;;;;;;4.82;4.32;;;;;;;24.63;37.35;98008.84;5053371;28;20205;-77
2023/06/17 09:16:29;;;;;;;5.03;4.30;;;;;;;25.05;37.98;98002.88;5053664;28;20233;-76
2023/06/17 09:19:03;;;;;;;4.95;4.55;;;;;;;25.02;37.36;98006.22;5053727;28;20200;-77
2023/06/17 09:21:30;;;;;;;5.88;4.57;;;;;;;24.64;38.83;98005.00;5053629;28;20698;-77
2023/06/17 09:24:05;;;;;;;5.97;4.60;;;;;;;24.61;37.79;98003.72;5053325;28;20699;-77
2023/06/17 09:26:35;;;;;;;7.47;4.50;;;;;;;24.63;38.07;98003.41;5053579;28;20228;-74
2023/06/17 09:29:03;;;;;;;5.57;4.57;;;;;;;24.81;37.23;98002.41;5054032;28;20224;-77
2023/06/17 09:31:30;;;;;;;5.00;4.47;;;;;;;25.08;37.62;97999.50;5052447;28;20205;-77
2023/06/17 09:33:57;;;;;;;5.75;4.00;;;;;;;25.32;35.26;97992.59;5053276;28;20283;-77
2023/06/17 09:36:24;;;;;;;4.40;4.00;;;;;;;25.34;34.07;97984.94;5053295;28;20279;-77
2023/06/17 09:38:54;;;;;;;4.20;3.80;;;;;;;25.25;34.63;97984.06;5053157;28;20661;-77
2023/06/17 09:41:23;;;;;;;4.00;3.67;;;;;;;25.45;32.06;97988.16;5053241;28;20237;-77
2023/06/17 09:43:52;;;;;;;5.45;3.97;;;;;;;25.61;33.16;97981.16;5053113;28;20205;-77
2023/06/17 09:46:29;;;;;;;4.03;3.63;;;;;;;25.56;32.63;97981.31;5053191;28;20270;-76
2023/06/17 09:48:57;;;;;;;4.57;3.97;;;;;;;25.82;31.87;97984.88;5052835;28;20687;-76
2023/06/17 09:51:23;;;;;;;4.43;4.03;;;;;;;25.73;32.49;97984.84;5053091;28;20715;-76
2023/06/17 09:53:56;;;;;;;6.15;4.00;;;;;;;26.00;31.68;97981.88;5053149;28;20205;-76
2023/06/17 09:56:24;;;;;;;4.78;3.88;;;;;;;25.79;31.48;97990.97;5053935;28;20225;-76
2023/06/17 09:58:52;;;;;;;5.07;3.80;;;;;;;26.23;30.48;97974.34;5052462;28;20297;-76
2023/06/17 10:01:18;;;;;;;4.45;4.05;;;;;;;25.41;30.61;97987.16;5051948;28;20212;-77
2023/06/17 10:03:46;;;;;;;8.95;4.07;;;;;;;25.94;29.84;97969.53;5053214;28;20209;-77
2023/06/17 10:06:18;;;;;;;4.07;3.78;;;;;;;26.16;30.21;97976.75;5052814;28;20225;-77
2023/06/17 10:08:45;;;;;;;4.55;3.92;;;;;;;26.23;30.42;97971.63;5052973;28;20551;-77
2023/06/17 10:11:18;;;;;;;5.13;4.28;;;;;;;25.25;31.20;97975.91;5053339;28;20201;-76
2023/06/17 10:13:51;;;;;;;4.43;4.00;;;;;;;24.60;32.41;97968.72;5052976;28;20220;-77
2023/06/17 10:16:21;;;;;;;4.63;3.97;;;;;;;25.12;32.20;97968.66;5052588;28;20319;-77
2023/06/17 10:18:51;;;;;;;4.55;4.05;;;;;;;24.56;31.77;97978.56;5052695;28;20209;-77
2023/06/17 10:21:19;;;;;;;4.78;3.88;;;;;;;24.29;32.81;97982.19;5052867;28;20200;-77
2023/06/17 10:23:47;;;;;;;4.78;4.10;;;;;;;24.44;32.77;97975.59;5052310;28;20270;-77
2023/06/17 10:26:15;;;;;;;4.43;3.88;;;;;;;24.46;33.01;97967.97;5052722;28;20286;-77
2023/06/17 10:28:54;;;;;;;4.13;3.75;;;;;;;24.93;33.03;97961.84;5052837;28;20213;-77
2023/06/17 10:31:26;;;;;;;4.70;4.20;;;;;;;25.15;32.10;97967.22;5052787;28;20204;-77
2023/06/17 10:33:53;;;;;;;4.15;3.75;;;;;;;25.40;31.79;97971.97;5052835;28;20205;-76
2023/06/17 10:36:23;;;;;;;4.22;3.75;;;;;;;25.00;31.55;97967.63;5052290;28;20734;-77
2023/06/17 10:38:56;;;;;;;5.85;3.83;;;;;;;25.33;30.95;97971.63;5052746;28;20205;-77
2023/06/17 10:41:44;;;;;;;4.60;3.67;;;;;;;25.07;30.80;97967.97;5052360;28;20730;-77
2023/06/17 10:44:40;;;;;;;4.68;4.30;;;;;;;25.37;31.76;97956.28;5056068;28;20292;-77
2023/06/17 10:47:36;;;;;;;3.70;3.38;;;;;;;25.87;31.37;97947.38;5056670;28;20225;-77
2023/06/17 10:50:05;;;;;;;4.35;3.95;;;;;;;26.26;30.34;97944.53;5059684;28;20225;-77
2023/06/17 10:52:31;;;;;;;5.13;4.03;;;;;;;26.19;29.53;97944.19;5056636;28;20213;-77
2023/06/17 10:54:58;;;;;;;4.10;3.80;;;;;;;25.76;28.93;97942.56;5056318;28;20208;-77
2023/06/17 10:57:35;;;;;;;3.90;3.47;;;;;;;26.26;29.94;97943.72;5056162;28;20225;-77
2023/06/17 11:00:08;;;;;;;5.60;3.72;;;;;;;26.16;28.60;97936.69;5055818;28;20714;-77
2023/06/17 11:02:37;;;;;;;4.78;3.95;;;;;;;25.82;29.71;97936.63;5055889;28;20640;-77
2023/06/17 11:05:03;;;;;;;4.30;3.85;;;;;;;26.19;28.85;97927.06;5056106;28;20251;-77
2023/06/17 11:07:30;;;;;;;4.93;3.78;;;;;;;26.26;29.66;97938.25;5055898;28;20229;-77
2023/06/17 11:09:56;;;;;;;6.07;4.32;;;;;;;26.17;28.97;97924.66;5055776;28;20310;-77
2023/06/17 11:12:23;;;;;;;5.93;3.92;;;;;;;25.99;29.12;97935.88;5055431;28;20569;-77
2023/06/17 11:14:49;;;;;;;5.28;3.92;;;;;;;26.14;28.48;97929.97;5055760;28;20688;-77
2023/06/17 11:17:15;;;;;;;5.05;4.07;;;;;;;26.27;28.97;97931.69;5055617;28;20704;-77
2023/06/17 11:19:42;;;;;;;4.20;3.80;;;;;;;26.75;30.42;97924.06;5055929;28;20220;-77
2023/06/17 11:22:08;;;;;;;5.10;3.85;;;;;;;27.12;29.64;97933.41;5056164;28;20209;-77
2023/06/17 11:24:36;;;;;;;5.03;4.15;;;;;;;27.26;30.26;97921.13;5055478;28;20217;-77
2023/06/17 11:27:05;;;;;;;5.22;4.70;;;;;;;27.17;31.56;97927.75;5055750;28;20225;-77
2023/06/17 11:29:31;;;;;;;6.60;4.22;;;;;;;26.52;30.43;97928.94;5055709;28;20232;-76
2023/06/17 11:32:02;;;;;;;4.07;3.78;;;;;;;26.74;30.33;97928.72;5055293;28;20665;-77
2023/06/17 11:34:31;;;;;;;4.15;3.85;;;;;;;26.94;30.56;97932.66;5055713;28;20635;-77
2023/06/17 11:37:00;;;;;;;4.75;4.35;;;;;;;27.31;28.99;97926.41;5055634;28;20225;-77